sensor_id;sensor_type;location;lat;lon;timestamp;pressure;altitude;pressure_sealevel;temperature;humidity
18900;BME280;9582;52.018;6.306;2023-08-21T00:00:51;104467.84;;;17.47;100.00
18900;BME280;9582;52.018;6.306;2023-08-21T00:03:18;104475.91;;;17.41;100.00
18900;BME280;9582;52.018;6.306;2023-08-21T00:05:44;104465.44;;;17.35;100.00
18900;BME280;9582;52.018;6.306;2023-08-21T00:08:11;104466.44;;;17.26;100.00
18900;BME280;9582;52.018;6.306;2023-08-21T00:10:39;104461.22;;;17.20;100.00
18900;BME280;9582;52.018;6.306;2023-08-21T00:13:06;104471.81;;;17.20;100.00
18900;BME280;9582;52.018;6.306;2023-08-21T00:15:32;104471.78;;;17.23;100.00
18900;BME280;9582;52.018;6.306;2023-08-21T00:17:59;104460.28;;;17.26;100.00
18900;BME280;9582;52.018;6.306;2023-08-21T00:20:26;104466.41;;;17.29;100.00
18900;BME280;9582;52.018;6.306;2023-08-21T00:22:52;104461.84;;;17.38;100.00
18900;BME280;9582;52.018;6.306;2023-08-21T00:25:21;104477.75;;;17.36;100.00
18900;BME280;9582;52.018;6.306;2023-08-21T00:27:49;104468.97;;;17.36;100.00
18900;BME280;9582;52.018;6.306;2023-08-21T00:30:15;104481.22;;;17.41;100.00
18900;BME280;9582;52.018;6.306;2023-08-21T00:32:42;104482.84;;;17.50;100.00
18900;BME280;9582;52.018;6.306;2023-08-21T00:35:08;104491.63;;;17.55;100.00
18900;BME280;9582;52.018;6.306;2023-08-21T00:37:35;104495.06;;;17.60;100.00
18900;BME280;9582;52.018;6.306;2023-08-21T00:40:02;104494.97;;;17.66;100.00
18900;BME280;9582;52.018;6.306;2023-08-21T00:42:28;104497.56;;;17.69;100.00
18900;BME280;9582;52.018;6.306;2023-08-21T00:44:56;104509.81;;;17.74;100.00
18900;BME280;9582;52.018;6.306;2023-08-21T00:47:23;104507.19;;;17.74;100.00
18900;BME280;9582;52.018;6.306;2023-08-21T00:49:49;104506.28;;;17.74;100.00
18900;BME280;9582;52.018;6.306;2023-08-21T00:52:16;104508.13;;;17.70;100.00
18900;BME280;9582;52.018;6.306;2023-08-21T00:54:45;104501.13;;;17.65;100.00
18900;BME280;9582;52.018;6.306;2023-08-21T00:57:12;104506.53;;;17.60;100.00
18900;BME280;9582;52.018;6.306;2023-08-21T00:59:39;104512.75;;;17.58;100.00
18900;BME280;9582;52.018;6.306;2023-08-21T01:02:07;104523.28;;;17.61;100.00
18900;BME280;9582;52.018;6.306;2023-08-21T01:04:34;104520.59;;;17.64;100.00
18900;BME280;9582;52.018;6.306;2023-08-21T01:07:00;104517.91;;;17.65;100.00
18900;BME280;9582;52.018;6.306;2023-08-21T01:09:33;104536.41;;;17.67;100.00
18900;BME280;9582;52.018;6.306;2023-08-21T01:12:15;104533.69;;;17.70;100.00
18900;BME280;9582;52.018;6.306;2023-08-21T01:14:51;104532.81;;;17.71;100.00
18900;BME280;9582;52.018;6.306;2023-08-21T01:17:22;104535.47;;;17.71;100.00
18900;BME280;9582;52.018;6.306;2023-08-21T01:19:50;104531.06;;;17.70;100.00
18900;BME280;9582;52.018;6.306;2023-08-21T01:22:18;104531.06;;;17.70;100.00
18900;BME280;9582;52.018;6.306;2023-08-21T01:24:46;104528.44;;;17.68;100.00
18900;BME280;9582;52.018;6.306;2023-08-21T01:27:13;104529.38;;;17.66;100.00
18900;BME280;9582;52.018;6.306;2023-08-21T01:29:40;104532.91;;;17.65;100.00
18900;BME280;9582;52.018;6.306;2023-08-21T01:32:17;104532.06;;;17.63;100.00
18900;BME280;9582;52.018;6.306;2023-08-21T01:34:48;104521.56;;;17.58;100.00
18900;BME280;9582;52.018;6.306;2023-08-21T01:37:17;104518.97;;;17.54;100.00
18900;BME280;9582;52.018;6.306;2023-08-21T01:39:45;104518.22;;;17.44;100.00
18900;BME280;9582;52.018;6.306;2023-08-21T01:42:11;104522.72;;;17.38;100.00
18900;BME280;9582;52.018;6.306;2023-08-21T01:44:38;104521.78;;;17.39;100.00
18900;BME280;9582;52.018;6.306;2023-08-21T01:47:06;104508.59;;;17.37;100.00
18900;BME280;9582;52.018;6.306;2023-08-21T01:49:33;104505.13;;;17.33;100.00
18900;BME280;9582;52.018;6.306;2023-08-21T01:51:59;104510.50;;;17.29;100.00
18900;BME280;9582;52.018;6.306;2023-08-21T01:54:26;104505.25;;;17.24;100.00
18900;BME280;9582;52.018;6.306;2023-08-21T01:56:53;104505.31;;;17.20;100.00
18900;BME280;9582;52.018;6.306;2023-08-21T01:59:20;104503.63;;;17.16;100.00
18900;BME280;9582;52.018;6.306;2023-08-21T02:01:46;104499.28;;;17.10;100.00
18900;BME280;9582;52.018;6.306;2023-08-21T02:04:13;104489.69;;;17.03;100.00
18900;BME280;9582;52.018;6.306;2023-08-21T02:06:40;104487.97;;;17.01;100.00
18900;BME280;9582;52.018;6.306;2023-08-21T02:09:06;104485.31;;;16.99;100.00
18900;BME280;9582;52.018;6.306;2023-08-21T02:11:34;104483.63;;;16.94;100.00
18900;BME280;9582;52.018;6.306;2023-08-21T02:14:02;104482.84;;;16.90;100.00
18900;BME280;9582;52.018;6.306;2023-08-21T02:16:29;104482.91;;;16.84;100.00
18900;BME280;9582;52.018;6.306;2023-08-21T02:18:56;104487.34;;;16.81;100.00
18900;BME280;9582;52.018;6.306;2023-08-21T02:21:23;104490.94;;;16.75;100.00
18900;BME280;9582;52.018;6.306;2023-08-21T02:23:50;104486.56;;;16.71;100.00
18900;BME280;9582;52.018;6.306;2023-08-21T02:26:16;104482.16;;;16.73;100.00
18900;BME280;9582;52.018;6.306;2023-08-21T02:28:44;104478.59;;;16.76;100.00
18900;BME280;9582;52.018;6.306;2023-08-21T02:31:13;104490.06;;;16.76;100.00
18900;BME280;9582;52.018;6.306;2023-08-21T02:33:39;104490.94;;;16.75;100.00
18900;BME280;9582;52.018;6.306;2023-08-21T02:36:06;104485.72;;;16.70;100.00
18900;BME280;9582;52.018;6.306;2023-08-21T02:38:33;104484.88;;;16.67;100.00
18900;BME280;9582;52.018;6.306;2023-08-21T02:41:00;104475.19;;;16.66;100.00
18900;BME280;9582;52.018;6.306;2023-08-21T02:43:26;104481.41;;;16.65;100.00
18900;BME280;9582;52.018;6.306;2023-08-21T02:45:53;104481.34;;;16.66;100.00
18900;BME280;9582;52.018;6.306;2023-08-21T02:48:21;104476.91;;;16.70;100.00
18900;BME280;9582;52.018;6.306;2023-08-21T02:50:48;104469.00;;;16.68;100.00
18900;BME280;9582;52.018;6.306;2023-08-21T02:53:15;104463.78;;;16.64;100.00
18900;BME280;9582;52.018;6.306;2023-08-21T02:55:41;104469.09;;;16.61;100.00
18900;BME280;9582;52.018;6.306;2023-08-21T02:58:08;104465.63;;;16.56;100.00
18900;BME280;9582;52.018;6.306;2023-08-21T03:00:37;104475.28;;;16.57;100.00
18900;BME280;9582;52.018;6.306;2023-08-21T03:03:04;104488.50;;;16.58;100.00
18900;BME280;9582;52.018;6.306;2023-08-21T03:05:32;104495.53;;;16.61;100.00
18900;BME280;9582;52.018;6.306;2023-08-21T03:07:59;104495.53;;;16.61;100.00
18900;BME280;9582;52.018;6.306;2023-08-21T03:10:25;104498.16;;;16.61;100.00
18900;BME280;9582;52.018;6.306;2023-08-21T03:12:54;104510.56;;;16.56;100.00
18900;BME280;9582;52.018;6.306;2023-08-21T03:15:21;104508.88;;;16.47;100.00
18900;BME280;9582;52.018;6.306;2023-08-21T03:17:47;104502.75;;;16.42;100.00
18900;BME280;9582;52.018;6.306;2023-08-21T03:20:14;104513.38;;;16.35;100.00
18900;BME280;9582;52.018;6.306;2023-08-21T03:22:44;104516.16;;;16.26;100.00
18900;BME280;9582;52.018;6.306;2023-08-21T03:25:11;104517.06;;;16.22;100.00
18900;BME280;9582;52.018;6.306;2023-08-21T03:27:37;104519.66;;;16.23;100.00
18900;BME280;9582;52.018;6.306;2023-08-21T03:30:05;104533.72;;;16.27;100.00
18900;BME280;9582;52.018;6.306;2023-08-21T03:32:32;104533.72;;;16.28;100.00
18900;BME280;9582;52.018;6.306;2023-08-21T03:34:59;104539.84;;;16.32;100.00
18900;BME280;9582;52.018;6.306;2023-08-21T03:37:25;104546.03;;;16.31;100.00
18900;BME280;9582;52.018;6.306;2023-08-21T03:39:53;104548.66;;;16.34;100.00
18900;BME280;9582;52.018;6.306;2023-08-21T03:42:20;104561.84;;;16.34;100.00
18900;BME280;9582;52.018;6.306;2023-08-21T03:44:47;104576.78;;;16.35;100.00
18900;BME280;9582;52.018;6.306;2023-08-21T03:47:15;104571.50;;;16.35;100.00
18900;BME280;9582;52.018;6.306;2023-08-21T03:49:56;104595.31;;;16.33;100.00
18900;BME280;9582;52.018;6.306;2023-08-21T03:52:24;104594.44;;;16.30;100.00
18900;BME280;9582;52.018;6.306;2023-08-21T03:54:51;104602.41;;;16.28;100.00
18900;BME280;9582;52.018;6.306;2023-08-21T03:57:18;104612.06;;;16.31;100.00
18900;BME280;9582;52.018;6.306;2023-08-21T03:59:45;104606.75;;;16.34;100.00
18900;BME280;9582;52.018;6.306;2023-08-21T04:02:12;104619.94;;;16.35;100.00
18900;BME280;9582;52.018;6.306;2023-08-21T04:04:39;104618.16;;;16.37;100.00
18900;BME280;9582;52.018;6.306;2023-08-21T04:07:06;104632.22;;;16.42;100.00
18900;BME280;9582;52.018;6.306;2023-08-21T04:09:32;104648.91;;;16.46;100.00
18900;BME280;9582;52.018;6.306;2023-08-21T04:11:58;104659.47;;;16.46;100.00
18900;BME280;9582;52.018;6.306;2023-08-21T04:14:26;104669.13;;;16.48;100.00
18900;BME280;9582;52.018;6.306;2023-08-21T04:16:53;104676.19;;;16.51;100.00
18900;BME280;9582;52.018;6.306;2023-08-21T04:19:20;104671.75;;;16.53;100.00
18900;BME280;9582;52.018;6.306;2023-08-21T04:21:46;104689.41;;;16.54;100.00
18900;BME280;9582;52.018;6.306;2023-08-21T04:24:12;104697.31;;;16.55;100.00
18900;BME280;9582;52.018;6.306;2023-08-21T04:26:39;104695.56;;;16.56;100.00
18900;BME280;9582;52.018;6.306;2023-08-21T04:29:06;104683.19;;;16.59;100.00
18900;BME280;9582;52.018;6.306;2023-08-21T04:31:34;104689.34;;;16.60;100.00
18900;BME280;9582;52.018;6.306;2023-08-21T04:34:01;104697.28;;;16.57;100.00
18900;BME280;9582;52.018;6.306;2023-08-21T04:36:27;104699.97;;;16.54;100.00
18900;BME280;9582;52.018;6.306;2023-08-21T04:38:55;104695.53;;;16.54;100.00
18900;BME280;9582;52.018;6.306;2023-08-21T04:41:22;104699.97;;;16.54;100.00
18900;BME280;9582;52.018;6.306;2023-08-21T04:43:48;104700.81;;;16.53;100.00
18900;BME280;9582;52.018;6.306;2023-08-21T04:46:16;104707.00;;;16.49;100.00
18900;BME280;9582;52.018;6.306;2023-08-21T04:48:45;104702.66;;;16.43;100.00
18900;BME280;9582;52.018;6.306;2023-08-21T04:51:12;104708.84;;;16.41;100.00
18900;BME280;9582;52.018;6.306;2023-08-21T04:53:40;104700.06;;;16.39;100.00
18900;BME280;9582;52.018;6.306;2023-08-21T04:56:11;104712.38;;;16.40;100.00
18900;BME280;9582;52.018;6.306;2023-08-21T04:58:38;104722.91;;;16.43;100.00
18900;BME280;9582;52.018;6.306;2023-08-21T05:01:06;104722.84;;;16.52;100.00
18900;BME280;9582;52.018;6.306;2023-08-21T05:03:35;104736.03;;;16.58;100.00
18900;BME280;9582;52.018;6.306;2023-08-21T05:06:04;104743.94;;;16.64;100.00
18900;BME280;9582;52.018;6.306;2023-08-21T05:08:33;104757.09;;;16.70;100.00
18900;BME280;9582;52.018;6.306;2023-08-21T05:11:01;104766.72;;;16.79;100.00
18900;BME280;9582;52.018;6.306;2023-08-21T05:13:31;104778.13;;;16.84;100.00
18900;BME280;9582;52.018;6.306;2023-08-21T05:15:58;104780.72;;;16.88;100.00
18900;BME280;9582;52.018;6.306;2023-08-21T05:18:29;104786.91;;;16.90;100.00
18900;BME280;9582;52.018;6.306;2023-08-21T05:20:56;104790.41;;;16.92;100.00
18900;BME280;9582;52.018;6.306;2023-08-21T05:23:24;104803.59;;;16.95;100.00
18900;BME280;9582;52.018;6.306;2023-08-21T05:25:54;104805.28;;;17.02;100.00
18900;BME280;9582;52.018;6.306;2023-08-21T05:28:20;104819.28;;;17.13;100.00
18900;BME280;9582;52.018;6.306;2023-08-21T05:30:47;104820.09;;;17.23;100.00
18900;BME280;9582;52.018;6.306;2023-08-21T05:33:15;104828.88;;;17.29;100.00
18900;BME280;9582;52.018;6.306;2023-08-21T05:35:43;104842.91;;;17.38;100.00
18900;BME280;9582;52.018;6.306;2023-08-21T05:38:09;104834.88;;;17.47;100.00
18900;BME280;9582;52.018;6.306;2023-08-21T05:40:37;104835.72;;;17.55;100.00
18900;BME280;9582;52.018;6.306;2023-08-21T05:43:04;104840.06;;;17.59;100.00
18900;BME280;9582;52.018;6.306;2023-08-21T05:45:30;104838.03;;;17.83;100.00
18900;BME280;9582;52.018;6.306;2023-08-21T05:47:57;104845.47;;;18.26;100.00
18900;BME280;9582;52.018;6.306;2023-08-21T05:50:24;104866.91;;;18.72;100.00
18900;BME280;9582;52.018;6.306;2023-08-21T05:52:53;104873.41;;;19.09;100.00
18900;BME280;9582;52.018;6.306;2023-08-21T05:55:22;104863.97;;;19.43;100.00
18900;BME280;9582;52.018;6.306;2023-08-21T05:57:51;104836.63;;;19.37;100.00
18900;BME280;9582;52.018;6.306;2023-08-21T06:00:19;104795.41;;;19.19;100.00
18900;BME280;9582;52.018;6.306;2023-08-21T06:02:45;104760.56;;;19.36;100.00
18900;BME280;9582;52.018;6.306;2023-08-21T06:05:31;104750.34;;;19.15;100.00
18900;BME280;9582;52.018;6.306;2023-08-21T06:07:58;104727.91;;;18.85;100.00
18900;BME280;9582;52.018;6.306;2023-08-21T06:10:25;104717.34;;;18.82;100.00
18900;BME280;9582;52.018;6.306;2023-08-21T06:12:53;104716.72;;;19.15;100.00
18900;BME280;9582;52.018;6.306;2023-08-21T06:15:19;104712.19;;;19.20;100.00
18900;BME280;9582;52.018;6.306;2023-08-21T06:17:46;104719.72;;;19.86;100.00
18900;BME280;9582;52.018;6.306;2023-08-21T06:20:12;104715.38;;;20.20;100.00
18900;BME280;9582;52.018;6.306;2023-08-21T06:22:39;104712.16;;;20.44;100.00
18900;BME280;9582;52.018;6.306;2023-08-21T06:25:07;104697.66;;;20.56;100.00
18900;BME280;9582;52.018;6.306;2023-08-21T06:27:33;104711.84;;;20.90;100.00
18900;BME280;9582;52.018;6.306;2023-08-21T06:30:02;104707.06;;;21.35;100.00
18900;BME280;9582;52.018;6.306;2023-08-21T06:32:29;104692.00;;;21.34;100.00
18900;BME280;9582;52.018;6.306;2023-08-21T06:34:56;104642.88;;;21.44;100.00
18900;BME280;9582;52.018;6.306;2023-08-21T06:37:23;104596.19;;;21.33;100.00
18900;BME280;9582;52.018;6.306;2023-08-21T06:39:50;104525.41;;;21.53;100.00
18900;BME280;9582;52.018;6.306;2023-08-21T06:42:16;104487.19;;;20.97;100.00
18900;BME280;9582;52.018;6.306;2023-08-21T06:44:47;104485.69;;;20.59;100.00
18900;BME280;9582;52.018;6.306;2023-08-21T06:47:15;104484.81;;;20.28;100.00
18900;BME280;9582;52.018;6.306;2023-08-21T06:49:42;104482.34;;;20.21;100.00
18900;BME280;9582;52.018;6.306;2023-08-21T06:52:09;104495.88;;;20.44;100.00
18900;BME280;9582;52.018;6.306;2023-08-21T06:54:35;104501.69;;;20.58;100.00
18900;BME280;9582;52.018;6.306;2023-08-21T06:57:02;104505.00;;;20.95;100.00
18900;BME280;9582;52.018;6.306;2023-08-21T06:59:28;104511.16;;;21.26;100.00
18900;BME280;9582;52.018;6.306;2023-08-21T07:01:55;104491.81;;;21.21;100.00
18900;BME280;9582;52.018;6.306;2023-08-21T07:04:22;104469.44;;;20.98;100.00
18900;BME280;9582;52.018;6.306;2023-08-21T07:06:49;104466.94;;;20.93;100.00
18900;BME280;9582;52.018;6.306;2023-08-21T07:09:15;104455.94;;;20.76;100.00
18900;BME280;9582;52.018;6.306;2023-08-21T07:11:42;104449.34;;;20.60;100.00
18900;BME280;9582;52.018;6.306;2023-08-21T07:14:08;104451.34;;;20.52;100.00
18900;BME280;9582;52.018;6.306;2023-08-21T07:16:35;104455.09;;;20.45;100.00
18900;BME280;9582;52.018;6.306;2023-08-21T07:19:01;104458.53;;;20.48;100.00
18900;BME280;9582;52.018;6.306;2023-08-21T07:21:29;104458.50;;;20.50;100.00
18900;BME280;9582;52.018;6.306;2023-08-21T07:23:56;104465.47;;;20.54;100.00
18900;BME280;9582;52.018;6.306;2023-08-21T07:26:22;104466.38;;;20.53;100.00
18900;BME280;9582;52.018;6.306;2023-08-21T07:28:49;104474.97;;;20.62;100.00
18900;BME280;9582;52.018;6.306;2023-08-21T07:31:15;104473.59;;;20.79;100.00
18900;BME280;9582;52.018;6.306;2023-08-21T07:33:42;104470.97;;;21.06;100.00
18900;BME280;9582;52.018;6.306;2023-08-21T07:36:08;104457.59;;;21.09;100.00
18900;BME280;9582;52.018;6.306;2023-08-21T07:38:41;104464.19;;;21.52;100.00
18900;BME280;9582;52.018;6.306;2023-08-21T07:41:09;104441.28;;;21.46;100.00
18900;BME280;9582;52.018;6.306;2023-08-21T07:43:36;104425.03;;;21.54;100.00
18900;BME280;9582;52.018;6.306;2023-08-21T07:46:03;104405.75;;;21.47;100.00
18900;BME280;9582;52.018;6.306;2023-08-21T07:48:30;104385.84;;;21.33;100.00
18900;BME280;9582;52.018;6.306;2023-08-21T07:50:56;104372.69;;;21.28;100.00
18900;BME280;9582;52.018;6.306;2023-08-21T07:53:24;104376.38;;;21.24;100.00
18900;BME280;9582;52.018;6.306;2023-08-21T07:55:52;104373.69;;;21.24;100.00
18900;BME280;9582;52.018;6.306;2023-08-21T07:58:18;104367.78;;;21.16;100.00
18900;BME280;9582;52.018;6.306;2023-08-21T08:00:45;104335.28;;;21.05;100.00
18900;BME280;9582;52.018;6.306;2023-08-21T08:03:13;104308.41;;;21.14;100.00
18900;BME280;9582;52.018;6.306;2023-08-21T08:05:40;104306.69;;;21.11;100.00
18900;BME280;9582;52.018;6.306;2023-08-21T08:08:07;104283.72;;;21.09;100.00
18900;BME280;9582;52.018;6.306;2023-08-21T08:10:33;104268.69;;;21.08;100.00
18900;BME280;9582;52.018;6.306;2023-08-21T08:13:04;104278.47;;;21.32;100.00
18900;BME280;9582;52.018;6.306;2023-08-21T08:15:31;104277.31;;;21.64;100.00
18900;BME280;9582;52.018;6.306;2023-08-21T08:17:59;104268.09;;;21.72;100.00
18900;BME280;9582;52.018;6.306;2023-08-21T08:20:26;104250.97;;;22.03;100.00
18900;BME280;9582;52.018;6.306;2023-08-21T08:22:52;104227.19;;;21.98;100.00
18900;BME280;9582;52.018;6.306;2023-08-21T08:25:19;104173.25;;;21.92;100.00
18900;BME280;9582;52.018;6.306;2023-08-21T08:27:45;104128.88;;;22.12;100.00
18900;BME280;9582;52.018;6.306;2023-08-21T08:30:14;104114.13;;;22.04;100.00
18900;BME280;9582;52.018;6.306;2023-08-21T08:32:42;104106.78;;;22.09;100.00
18900;BME280;9582;52.018;6.306;2023-08-21T08:35:10;104111.88;;;22.15;100.00
18900;BME280;9582;52.018;6.306;2023-08-21T08:37:36;104122.59;;;22.35;100.00
18900;BME280;9582;52.018;6.306;2023-08-21T08:40:04;104096.63;;;22.38;100.00
18900;BME280;9582;52.018;6.306;2023-08-21T08:42:30;104095.63;;;22.41;100.00
18900;BME280;9582;52.018;6.306;2023-08-21T08:45:00;104082.19;;;22.64;100.00
18900;BME280;9582;52.018;6.306;2023-08-21T08:47:31;104009.88;;;22.50;100.00
18900;BME280;9582;52.018;6.306;2023-08-21T08:49:58;104008.97;;;22.51;100.00
18900;BME280;9582;52.018;6.306;2023-08-21T08:52:26;104023.97;;;22.54;100.00
18900;BME280;9582;52.018;6.306;2023-08-21T08:54:53;104022.81;;;22.59;100.00
18900;BME280;9582;52.018;6.306;2023-08-21T08:57:21;104035.69;;;22.70;100.00
18900;BME280;9582;52.018;6.306;2023-08-21T08:59:48;104020.84;;;22.64;100.00
18900;BME280;9582;52.018;6.306;2023-08-21T09:02:15;104007.41;;;22.86;100.00
18900;BME280;9582;52.018;6.306;2023-08-21T09:04:43;103968.78;;;22.93;100.00
18900;BME280;9582;52.018;6.306;2023-08-21T09:07:10;103963.53;;;23.10;100.00
18900;BME280;9582;52.018;6.306;2023-08-21T09:09:37;103944.66;;;23.32;100.00
18900;BME280;9582;52.018;6.306;2023-08-21T09:12:09;103938.97;;;23.39;100.00
18900;BME280;9582;52.018;6.306;2023-08-21T09:14:37;103942.59;;;23.38;100.00
18900;BME280;9582;52.018;6.306;2023-08-21T09:17:04;103952.94;;;23.26;100.00
18900;BME280;9582;52.018;6.306;2023-08-21T09:19:30;103926.56;;;23.38;100.00
18900;BME280;9582;52.018;6.306;2023-08-21T09:21:58;103930.38;;;23.33;100.00
18900;BME280;9582;52.018;6.306;2023-08-21T09:24:25;103895.94;;;23.27;100.00
18900;BME280;9582;52.018;6.306;2023-08-21T09:26:52;103870.47;;;23.55;100.00
18900;BME280;9582;52.018;6.306;2023-08-21T09:29:19;103838.88;;;23.46;100.00
18900;BME280;9582;52.018;6.306;2023-08-21T09:31:45;103804.94;;;23.48;100.00
18900;BME280;9582;52.018;6.306;2023-08-21T09:34:12;103773.44;;;23.38;100.00
18900;BME280;9582;52.018;6.306;2023-08-21T09:36:38;103702.22;;;23.54;100.00
18900;BME280;9582;52.018;6.306;2023-08-21T09:39:15;103735.22;;;23.70;100.00
18900;BME280;9582;52.018;6.306;2023-08-21T09:41:54;103732.69;;;23.67;100.00
18900;BME280;9582;52.018;6.306;2023-08-21T09:44:21;103718.16;;;23.88;100.00
18900;BME280;9582;52.018;6.306;2023-08-21T09:46:49;103714.78;;;23.69;100.00
18900;BME280;9582;52.018;6.306;2023-08-21T09:49:17;103716.56;;;23.69;100.00
18900;BME280;9582;52.018;6.306;2023-08-21T09:51:43;103717.44;;;23.69;100.00
18900;BME280;9582;52.018;6.306;2023-08-21T09:54:11;103736.59;;;23.77;100.00
18900;BME280;9582;52.018;6.306;2023-08-21T09:56:39;103722.94;;;23.66;100.00
18900;BME280;9582;52.018;6.306;2023-08-21T09:59:06;103731.81;;;23.51;100.00
18900;BME280;9582;52.018;6.306;2023-08-21T10:01:35;103742.53;;;23.32;100.00
18900;BME280;9582;52.018;6.306;2023-08-21T10:04:05;103717.47;;;23.52;100.00
18900;BME280;9582;52.018;6.306;2023-08-21T10:06:32;103685.19;;;23.57;100.00
18900;BME280;9582;52.018;6.306;2023-08-21T10:09:00;103686.03;;;23.57;100.00
18900;BME280;9582;52.018;6.306;2023-08-21T10:11:28;103661.50;;;23.97;100.00
18900;BME280;9582;52.018;6.306;2023-08-21T10:13:55;103626.94;;;24.26;100.00
18900;BME280;9582;52.018;6.306;2023-08-21T10:16:23;103576.66;;;24.46;100.00
18900;BME280;9582;52.018;6.306;2023-08-21T10:18:49;103522.69;;;24.54;100.00
18900;BME280;9582;52.018;6.306;2023-08-21T10:21:17;103470.81;;;24.85;100.00
18900;BME280;9582;52.018;6.306;2023-08-21T10:23:47;103420.19;;;25.08;100.00
18900;BME280;9582;52.018;6.306;2023-08-21T10:26:14;103348.31;;;25.42;100.00
18900;BME280;9582;52.018;6.306;2023-08-21T10:28:43;103051.59;;;25.33;100.00
18900;BME280;9582;52.018;6.306;2023-08-21T10:31:26;102979.91;;;25.49;100.00
18900;BME280;9582;52.018;6.306;2023-08-21T10:33:52;102938.94;;;25.47;100.00
18900;BME280;9582;52.018;6.306;2023-08-21T10:36:37;102865.00;;;25.57;100.00
18900;BME280;9582;52.018;6.306;2023-08-21T10:39:04;102828.72;;;25.64;100.00
18900;BME280;9582;52.018;6.306;2023-08-21T10:41:38;102813.03;;;25.70;100.00
18900;BME280;9582;52.018;6.306;2023-08-21T10:44:06;102817.94;;;25.88;100.00
18900;BME280;9582;52.018;6.306;2023-08-21T10:46:51;102869.75;;;25.99;100.00
18900;BME280;9582;52.018;6.306;2023-08-21T10:49:17;102954.22;;;26.05;100.00
18900;BME280;9582;52.018;6.306;2023-08-21T10:51:44;103055.75;;;26.09;100.00
18900;BME280;9582;52.018;6.306;2023-08-21T10:54:11;103054.22;;;25.94;100.00
18900;BME280;9582;52.018;6.306;2023-08-21T10:56:37;103030.41;;;25.66;100.00
18900;BME280;9582;52.018;6.306;2023-08-21T10:59:04;103028.84;;;25.87;100.00
18900;BME280;9582;52.018;6.306;2023-08-21T11:01:43;103033.81;;;26.04;100.00
18900;BME280;9582;52.018;6.306;2023-08-21T11:04:10;103033.19;;;26.24;100.00
18900;BME280;9582;52.018;6.306;2023-08-21T11:06:37;103025.66;;;26.29;100.00
18900;BME280;9582;52.018;6.306;2023-08-21T11:09:04;103033.91;;;26.26;100.00
18900;BME280;9582;52.018;6.306;2023-08-21T11:11:31;103025.28;;;26.34;100.00
18900;BME280;9582;52.018;6.306;2023-08-21T11:13:58;103012.50;;;26.37;100.00
18900;BME280;9582;52.018;6.306;2023-08-21T11:16:24;103014.47;;;26.47;100.00
18900;BME280;9582;52.018;6.306;2023-08-21T11:18:52;103017.91;;;26.60;100.00
18900;BME280;9582;52.018;6.306;2023-08-21T11:21:19;103008.16;;;26.70;100.00
18900;BME280;9582;52.018;6.306;2023-08-21T11:23:45;103028.88;;;26.68;100.00
18900;BME280;9582;52.018;6.306;2023-08-21T11:26:12;102988.28;;;26.72;100.00
18900;BME280;9582;52.018;6.306;2023-08-21T11:28:38;102979.88;;;26.88;100.00
18900;BME280;9582;52.018;6.306;2023-08-21T11:31:06;102962.03;;;26.76;100.00
18900;BME280;9582;52.018;6.306;2023-08-21T11:33:32;102967.53;;;26.52;100.00
18900;BME280;9582;52.018;6.306;2023-08-21T11:36:00;102997.19;;;26.73;100.00
18900;BME280;9582;52.018;6.306;2023-08-21T11:38:27;103001.84;;;26.82;100.00
18900;BME280;9582;52.018;6.306;2023-08-21T11:40:55;103001.59;;;26.96;100.00
18900;BME280;9582;52.018;6.306;2023-08-21T11:43:33;102953.41;;;26.83;100.00
18900;BME280;9582;52.018;6.306;2023-08-21T11:46:01;102956.22;;;26.82;100.00
18900;BME280;9582;52.018;6.306;2023-08-21T11:48:27;103006.25;;;26.94;100.00
18900;BME280;9582;52.018;6.306;2023-08-21T11:50:54;102990.38;;;27.13;100.00
18900;BME280;9582;52.018;6.306;2023-08-21T11:53:36;102975.09;;;27.25;100.00
18900;BME280;9582;52.018;6.306;2023-08-21T11:56:09;102977.91;;;27.34;100.00
18900;BME280;9582;52.018;6.306;2023-08-21T11:58:37;102960.06;;;27.33;100.00
18900;BME280;9582;52.018;6.306;2023-08-21T12:01:04;102960.06;;;27.33;100.00
18900;BME280;9582;52.018;6.306;2023-08-21T12:03:35;102976.66;;;27.27;100.00
18900;BME280;9582;52.018;6.306;2023-08-21T12:06:05;102961.44;;;27.06;100.00
18900;BME280;9582;52.018;6.306;2023-08-21T12:08:32;102984.53;;;26.97;100.00
18900;BME280;9582;52.018;6.306;2023-08-21T12:10:59;102972.75;;;26.76;100.00
18900;BME280;9582;52.018;6.306;2023-08-21T12:13:26;102955.97;;;26.96;100.00
18900;BME280;9582;52.018;6.306;2023-08-21T12:15:53;102971.94;;;27.20;100.00
18900;BME280;9582;52.018;6.306;2023-08-21T12:18:19;102985.09;;;27.45;100.00
18900;BME280;9582;52.018;6.306;2023-08-21T12:20:46;102989.22;;;27.60;100.00
18900;BME280;9582;52.018;6.306;2023-08-21T12:23:12;102976.72;;;27.70;100.00
18900;BME280;9582;52.018;6.306;2023-08-21T12:25:39;102966.31;;;27.77;100.00
18900;BME280;9582;52.018;6.306;2023-08-21T12:28:07;103059.44;;;27.67;100.00
18900;BME280;9582;52.018;6.306;2023-08-21T12:30:34;103065.00;;;27.54;100.00
18900;BME280;9582;52.018;6.306;2023-08-21T12:33:00;103043.97;;;27.59;100.00
18900;BME280;9582;52.018;6.306;2023-08-21T12:35:26;103049.16;;;27.72;100.00
18900;BME280;9582;52.018;6.306;2023-08-21T12:37:57;103046.59;;;27.81;100.00
18900;BME280;9582;52.018;6.306;2023-08-21T12:40:24;103038.88;;;27.88;100.00
18900;BME280;9582;52.018;6.306;2023-08-21T12:42:51;103032.69;;;27.76;100.00
18900;BME280;9582;52.018;6.306;2023-08-21T12:45:19;103025.63;;;27.53;100.00
18900;BME280;9582;52.018;6.306;2023-08-21T12:47:45;103006.97;;;27.52;100.00
18900;BME280;9582;52.018;6.306;2023-08-21T12:50:12;102997.03;;;27.52;100.00
18900;BME280;9582;52.018;6.306;2023-08-21T12:52:38;102963.53;;;27.67;100.00